Terminal Aerodrome Forecast
Issued by NWS Albany, NY

Home | Current Version | Previous Version | Text Only | Print | Product List | Glossary On
Versions: 1 2 3 4 5 6 7 8 9 10 11 12 13 14 15 16 17 18 19 20 21
000
FTUS41 KALY 211700
TAFALB
TAF
KALB 211734Z 2118/2218 VRB04KT 6SM BR VCSH SCT006 OVC035
      TEMPO 2118/2122 3SM BR
     FM220000 01005KT 6SM -SHRA BR SCT020 OVC030
     FM220600 36006KT 5SM BR VCSH OVC020
     FM221000 36004KT 5SM BR VCSH SCT007 OVC015
     FM221500 35008KT 3SM -RA BR SCT007 OVC010=

USA.gov is the U.S. government's official web portal to all federal, state and local government web resources and services.